sensor_id;sensor_type;location;lat;lon;timestamp;pressure;altitude;pressure_sealevel;temperature;humidity
8575;BME280;4325;42.520;27.448;2023-03-21T00:02:06;101168.47;;;10.75;100.00
8575;BME280;4325;42.520;27.448;2023-03-21T00:04:35;101161.63;;;10.77;100.00
8575;BME280;4325;42.520;27.448;2023-03-21T00:07:01;101161.06;;;10.75;100.00
8575;BME280;4325;42.520;27.448;2023-03-21T00:09:30;101161.06;;;10.75;100.00
8575;BME280;4325;42.520;27.448;2023-03-21T00:11:57;101152.88;;;10.75;100.00
8575;BME280;4325;42.520;27.448;2023-03-21T00:14:26;101150.38;;;10.74;100.00
8575;BME280;4325;42.520;27.448;2023-03-21T00:16:55;101144.28;;;10.67;100.00
8575;BME280;4325;42.520;27.448;2023-03-21T00:19:22;101142.38;;;10.67;100.00
8575;BME280;4325;42.520;27.448;2023-03-21T00:21:51;101157.44;;;10.65;100.00
8575;BME280;4325;42.520;27.448;2023-03-21T00:24:20;101158.53;;;10.69;100.00
8575;BME280;4325;42.520;27.448;2023-03-21T00:26:49;101156.91;;;10.68;100.00
8575;BME280;4325;42.520;27.448;2023-03-21T00:29:16;101166.75;;;10.69;100.00
8575;BME280;4325;42.520;27.448;2023-03-21T00:31:43;101162.94;;;10.70;100.00
8575;BME280;4325;42.520;27.448;2023-03-21T00:34:10;101167.63;;;10.74;100.00
8575;BME280;4325;42.520;27.448;2023-03-21T00:36:37;101154.78;;;10.75;100.00
8575;BME280;4325;42.520;27.448;2023-03-21T00:39:03;101159.97;;;10.76;100.00
8575;BME280;4325;42.520;27.448;2023-03-21T00:41:31;101149.34;;;10.80;100.00
8575;BME280;4325;42.520;27.448;2023-03-21T00:43:59;101147.72;;;10.84;100.00
8575;BME280;4325;42.520;27.448;2023-03-21T00:46:26;101151.13;;;10.64;100.00
8575;BME280;4325;42.520;27.448;2023-03-21T00:48:53;101136.91;;;10.35;100.00
8575;BME280;4325;42.520;27.448;2023-03-21T00:51:22;101139.50;;;10.20;100.00
8575;BME280;4325;42.520;27.448;2023-03-21T00:53:52;101145.19;;;10.14;100.00
8575;BME280;4325;42.520;27.448;2023-03-21T00:56:19;101144.38;;;10.13;100.00
8575;BME280;4325;42.520;27.448;2023-03-21T00:58:46;101137.56;;;10.16;100.00
8575;BME280;4325;42.520;27.448;2023-03-21T01:01:14;101142.28;;;10.25;100.00
8575;BME280;4325;42.520;27.448;2023-03-21T01:03:41;101134.41;;;10.29;100.00
8575;BME280;4325;42.520;27.448;2023-03-21T01:06:12;101127.03;;;10.34;100.00
8575;BME280;4325;42.520;27.448;2023-03-21T01:08:44;101133.72;;;10.43;100.00
8575;BME280;4325;42.520;27.448;2023-03-21T01:11:13;101126.34;;;10.49;100.00
8575;BME280;4325;42.520;27.448;2023-03-21T01:13:40;101135.94;;;10.51;100.00
8575;BME280;4325;42.520;27.448;2023-03-21T01:16:08;101126.16;;;10.55;100.00
8575;BME280;4325;42.520;27.448;2023-03-21T01:18:37;101125.63;;;10.58;100.00
8575;BME280;4325;42.520;27.448;2023-03-21T01:21:08;101126.72;;;10.57;100.00
8575;BME280;4325;42.520;27.448;2023-03-21T01:23:35;101132.22;;;10.63;100.00
8575;BME280;4325;42.520;27.448;2023-03-21T01:26:02;101134.41;;;10.60;100.00
8575;BME280;4325;42.520;27.448;2023-03-21T01:28:29;101127.25;;;10.59;100.00
8575;BME280;4325;42.520;27.448;2023-03-21T01:30:56;101121.56;;;10.66;100.00
8575;BME280;4325;42.520;27.448;2023-03-21T01:33:25;101116.38;;;10.70;100.00
8575;BME280;4325;42.520;27.448;2023-03-21T01:35:54;101105.13;;;10.66;100.00
8575;BME280;4325;42.520;27.448;2023-03-21T01:38:21;101102.34;;;10.61;100.00
8575;BME280;4325;42.520;27.448;2023-03-21T01:40:48;101104.00;;;10.62;100.00
8575;BME280;4325;42.520;27.448;2023-03-21T01:43:24;101090.03;;;10.63;100.00
8575;BME280;4325;42.520;27.448;2023-03-21T01:46:20;101101.03;;;10.69;100.00
8575;BME280;4325;42.520;27.448;2023-03-21T01:48:50;101099.44;;;10.73;100.00
8575;BME280;4325;42.520;27.448;2023-03-21T01:51:22;101095.84;;;10.67;100.00
8575;BME280;4325;42.520;27.448;2023-03-21T01:53:50;101094.25;;;10.76;100.00
8575;BME280;4325;42.520;27.448;2023-03-21T01:56:22;101100.00;;;10.75;100.00
8575;BME280;4325;42.520;27.448;2023-03-21T01:58:52;101101.94;;;10.79;100.00
8575;BME280;4325;42.520;27.448;2023-03-21T02:01:21;101092.88;;;10.79;100.00
8575;BME280;4325;42.520;27.448;2023-03-21T02:03:49;101089.06;;;10.80;100.00
8575;BME280;4325;42.520;27.448;2023-03-21T02:06:24;101085.78;;;10.78;100.00
8575;BME280;4325;42.520;27.448;2023-03-21T02:08:57;101092.84;;;10.74;100.00
8575;BME280;4325;42.520;27.448;2023-03-21T02:11:27;101093.41;;;10.71;100.00
8575;BME280;4325;42.520;27.448;2023-03-21T02:13:57;101089.53;;;10.67;100.00
8575;BME280;4325;42.520;27.448;2023-03-21T02:16:28;101102.66;;;10.65;100.00
8575;BME280;4325;42.520;27.448;2023-03-21T02:19:13;101097.19;;;10.65;100.00
8575;BME280;4325;42.520;27.448;2023-03-21T02:22:10;101103.19;;;10.61;100.00
8575;BME280;4325;42.520;27.448;2023-03-21T02:25:17;101105.34;;;10.59;100.00
8575;BME280;4325;42.520;27.448;2023-03-21T02:27:53;101096.88;;;10.61;100.00
8575;BME280;4325;42.520;27.448;2023-03-21T02:30:49;101103.19;;;10.61;100.00
8575;BME280;4325;42.520;27.448;2023-03-21T02:36:45;101089.53;;;10.67;100.00
8575;BME280;4325;42.520;27.448;2023-03-21T02:39:14;101097.50;;;10.68;100.00
8575;BME280;4325;42.520;27.448;2023-03-21T02:41:50;101104.09;;;10.72;100.00
8575;BME280;4325;42.520;27.448;2023-03-21T02:44:23;101100.56;;;10.77;100.00
8575;BME280;4325;42.520;27.448;2023-03-21T02:46:56;101109.03;;;10.75;100.00
8575;BME280;4325;42.520;27.448;2023-03-21T02:49:28;101107.69;;;10.78;100.00
8575;BME280;4325;42.520;27.448;2023-03-21T02:51:58;101103.53;;;10.70;100.00
8575;BME280;4325;42.520;27.448;2023-03-21T02:54:27;101102.13;;;10.68;100.00
8575;BME280;4325;42.520;27.448;2023-03-21T02:56:56;101100.72;;;10.60;100.00
8575;BME280;4325;42.520;27.448;2023-03-21T02:59:26;101092.69;;;10.48;100.00
8575;BME280;4325;42.520;27.448;2023-03-21T03:01:55;101091.53;;;10.44;100.00
8575;BME280;4325;42.520;27.448;2023-03-21T03:04:24;101088.78;;;10.39;100.00
8575;BME280;4325;42.520;27.448;2023-03-21T03:07:09;101083.91;;;10.46;100.00
8575;BME280;4325;42.520;27.448;2023-03-21T03:09:56;101075.44;;;10.48;100.00
8575;BME280;4325;42.520;27.448;2023-03-21T03:12:33;101079.84;;;10.54;100.00
8575;BME280;4325;42.520;27.448;2023-03-21T03:15:08;101070.84;;;10.53;100.00
8575;BME280;4325;42.520;27.448;2023-03-21T03:17:55;101076.88;;;10.55;100.00
8575;BME280;4325;42.520;27.448;2023-03-21T03:20:36;101080.16;;;10.57;100.00
8575;BME280;4325;42.520;27.448;2023-03-21T03:23:18;101083.44;;;10.59;100.00
8575;BME280;4325;42.520;27.448;2023-03-21T03:25:52;101085.63;;;10.57;100.00
8575;BME280;4325;42.520;27.448;2023-03-21T03:28:23;101091.16;;;10.63;100.00
8575;BME280;4325;42.520;27.448;2023-03-21T03:30:53;101076.09;;;10.65;100.00
8575;BME280;4325;42.520;27.448;2023-03-21T03:33:21;101090.66;;;10.71;100.00
8575;BME280;4325;42.520;27.448;2023-03-21T03:35:50;101087.09;;;10.70;100.00
8575;BME280;4325;42.520;27.448;2023-03-21T03:38:21;101083.53;;;10.70;100.00
8575;BME280;4325;42.520;27.448;2023-03-21T03:40:54;101086.53;;;10.68;100.00
8575;BME280;4325;42.520;27.448;2023-03-21T03:43:31;101088.22;;;10.74;100.00
8575;BME280;4325;42.520;27.448;2023-03-21T03:46:05;101080.81;;;10.75;100.00
8575;BME280;4325;42.520;27.448;2023-03-21T03:48:41;101075.91;;;10.77;100.00
8575;BME280;4325;42.520;27.448;2023-03-21T03:51:14;101078.13;;;10.80;100.00
8575;BME280;4325;42.520;27.448;2023-03-21T03:53:45;101069.34;;;10.78;100.00
8575;BME280;4325;42.520;27.448;2023-03-21T03:56:16;101065.50;;;10.79;100.00
8575;BME280;4325;42.520;27.448;2023-03-21T03:58:43;101069.03;;;10.74;100.00
8575;BME280;4325;42.520;27.448;2023-03-21T04:01:10;101070.38;;;10.72;100.00
8575;BME280;4325;42.520;27.448;2023-03-21T04:03:39;101075.59;;;10.68;100.00
8575;BME280;4325;42.520;27.448;2023-03-21T04:06:07;101079.69;;;10.66;100.00
8575;BME280;4325;42.520;27.448;2023-03-21T04:08:34;101073.06;;;10.61;100.00
8575;BME280;4325;42.520;27.448;2023-03-21T04:11:03;101052.47;;;10.54;100.00
8575;BME280;4325;42.520;27.448;2023-03-21T04:13:32;101062.66;;;10.58;100.00
8575;BME280;4325;42.520;27.448;2023-03-21T04:15:59;101060.44;;;10.55;100.00
8575;BME280;4325;42.520;27.448;2023-03-21T04:18:26;101060.44;;;10.55;100.00
8575;BME280;4325;42.520;27.448;2023-03-21T04:20:52;101050.31;;;10.56;100.00
8575;BME280;4325;42.520;27.448;2023-03-21T04:23:19;101059.09;;;10.58;100.00
8575;BME280;4325;42.520;27.448;2023-03-21T04:25:47;101060.44;;;10.55;100.00
8575;BME280;4325;42.520;27.448;2023-03-21T04:28:16;101063.19;;;10.55;100.00
8575;BME280;4325;42.520;27.448;2023-03-21T04:30:47;101061.47;;;10.49;100.00
8575;BME280;4325;42.520;27.448;2023-03-21T04:33:15;101066.66;;;10.46;100.00
8575;BME280;4325;42.520;27.448;2023-03-21T04:35:42;101058.19;;;10.47;100.00
8575;BME280;4325;42.520;27.448;2023-03-21T04:38:10;101066.13;;;10.49;100.00
8575;BME280;4325;42.520;27.448;2023-03-21T04:40:37;101071.38;;;10.55;100.00
8575;BME280;4325;42.520;27.448;2023-03-21T04:43:04;101075.28;;;10.65;100.00
8575;BME280;4325;42.520;27.448;2023-03-21T04:45:32;101078.06;;;10.70;100.00
8575;BME280;4325;42.520;27.448;2023-03-21T04:48:00;101072.56;;;10.70;100.00
8575;BME280;4325;42.520;27.448;2023-03-21T04:50:27;101076.19;;;10.75;100.00
8575;BME280;4325;42.520;27.448;2023-03-21T04:52:54;101073.47;;;10.80;100.00
8575;BME280;4325;42.520;27.448;2023-03-21T04:55:21;101081.72;;;10.85;100.00
8575;BME280;4325;42.520;27.448;2023-03-21T04:57:51;101079.81;;;10.91;100.00
8575;BME280;4325;42.520;27.448;2023-03-21T05:00:18;101086.13;;;10.91;100.00
8575;BME280;4325;42.520;27.448;2023-03-21T05:02:46;101081.50;;;10.97;100.00
8575;BME280;4325;42.520;27.448;2023-03-21T05:05:13;101086.47;;;11.00;100.00
8575;BME280;4325;42.520;27.448;2023-03-21T05:07:40;101087.84;;;11.07;100.00
8575;BME280;4325;42.520;27.448;2023-03-21T05:10:09;101090.88;;;11.11;100.00
8575;BME280;4325;42.520;27.448;2023-03-21T05:12:37;101084.88;;;11.14;100.00
8575;BME280;4325;42.520;27.448;2023-03-21T05:15:06;101083.22;;;11.13;100.00
8575;BME280;4325;42.520;27.448;2023-03-21T05:17:33;101083.81;;;11.20;100.00
8575;BME280;4325;42.520;27.448;2023-03-21T05:20:02;101079.44;;;11.19;100.00
8575;BME280;4325;42.520;27.448;2023-03-21T05:22:30;101080.53;;;11.23;100.00
8575;BME280;4325;42.520;27.448;2023-03-21T05:25:07;101087.69;;;11.29;100.00
8575;BME280;4325;42.520;27.448;2023-03-21T05:27:34;101080.84;;;11.32;100.00
8575;BME280;4325;42.520;27.448;2023-03-21T05:30:08;101083.88;;;11.35;100.00
8575;BME280;4325;42.520;27.448;2023-03-21T05:32:35;101083.06;;;11.40;100.00
8575;BME280;4325;42.520;27.448;2023-03-21T05:35:04;101087.19;;;11.42;100.00
8575;BME280;4325;42.520;27.448;2023-03-21T05:37:31;101094.91;;;11.50;100.00
8575;BME280;4325;42.520;27.448;2023-03-21T05:39:58;101101.22;;;11.56;100.00
8575;BME280;4325;42.520;27.448;2023-03-21T05:42:25;101099.31;;;11.61;100.00
8575;BME280;4325;42.520;27.448;2023-03-21T05:44:52;101097.69;;;11.60;100.00
8575;BME280;4325;42.520;27.448;2023-03-21T05:47:19;101099.31;;;11.66;100.00
8575;BME280;4325;42.520;27.448;2023-03-21T05:49:46;101101.00;;;11.67;100.00
8575;BME280;4325;42.520;27.448;2023-03-21T05:52:15;101099.31;;;11.66;100.00
8575;BME280;4325;42.520;27.448;2023-03-21T05:54:42;101094.38;;;11.63;100.00
8575;BME280;4325;42.520;27.448;2023-03-21T05:57:09;101093.00;;;11.66;100.00
8575;BME280;4325;42.520;27.448;2023-03-21T05:59:36;101102.13;;;11.71;100.00
8575;BME280;4325;42.520;27.448;2023-03-21T06:02:03;101099.41;;;11.76;100.00
8575;BME280;4325;42.520;27.448;2023-03-21T06:04:30;101096.97;;;11.85;100.00
8575;BME280;4325;42.520;27.448;2023-03-21T06:06:57;101101.63;;;11.89;100.00
8575;BME280;4325;42.520;27.448;2023-03-21T06:09:25;101101.06;;;11.92;100.00
8575;BME280;4325;42.520;27.448;2023-03-21T06:11:54;101093.94;;;11.97;100.00
8575;BME280;4325;42.520;27.448;2023-03-21T06:14:22;101092.59;;;11.99;100.00
8575;BME280;4325;42.520;27.448;2023-03-21T06:16:50;101098.09;;;12.04;100.00
8575;BME280;4325;42.520;27.448;2023-03-21T06:19:18;101103.03;;;12.02;100.00
8575;BME280;4325;42.520;27.448;2023-03-21T06:21:45;101105.50;;;12.09;100.00
8575;BME280;4325;42.520;27.448;2023-03-21T06:24:12;101111.81;;;12.19;100.00
8575;BME280;4325;42.520;27.448;2023-03-21T06:26:40;101107.13;;;12.15;100.00
8575;BME280;4325;42.520;27.448;2023-03-21T06:29:09;101108.25;;;12.19;100.00
8575;BME280;4325;42.520;27.448;2023-03-21T06:31:36;101112.38;;;12.21;100.00
8575;BME280;4325;42.520;27.448;2023-03-21T06:34:03;101116.50;;;12.24;100.00
8575;BME280;4325;42.520;27.448;2023-03-21T06:36:30;101113.75;;;12.29;100.00
8575;BME280;4325;42.520;27.448;2023-03-21T06:38:56;101115.09;;;12.36;100.00
8575;BME280;4325;42.520;27.448;2023-03-21T06:41:23;101107.69;;;12.32;100.00
8575;BME280;4325;42.520;27.448;2023-03-21T06:43:52;101121.44;;;12.47;100.00
8575;BME280;4325;42.520;27.448;2023-03-21T06:46:18;101121.44;;;12.52;100.00
8575;BME280;4325;42.520;27.448;2023-03-21T06:48:45;101120.91;;;12.60;100.00
8575;BME280;4325;42.520;27.448;2023-03-21T06:51:13;101120.31;;;12.73;100.00
8575;BME280;4325;42.520;27.448;2023-03-21T06:53:40;101112.91;;;12.84;100.00
8575;BME280;4325;42.520;27.448;2023-03-21T06:56:07;101115.59;;;13.04;100.00
8575;BME280;4325;42.520;27.448;2023-03-21T06:58:34;101119.72;;;13.16;100.00
8575;BME280;4325;42.520;27.448;2023-03-21T07:01:03;101105.69;;;13.18;100.00
8575;BME280;4325;42.520;27.448;2023-03-21T07:03:31;101118.88;;;13.26;100.00
8575;BME280;4325;42.520;27.448;2023-03-21T07:06:03;101116.34;;;13.35;100.00
8575;BME280;4325;42.520;27.448;2023-03-21T07:08:31;101100.16;;;13.28;100.00
8575;BME280;4325;42.520;27.448;2023-03-21T07:10:58;101101.00;;;13.29;100.00
8575;BME280;4325;42.520;27.448;2023-03-21T07:13:25;101101.25;;;13.32;100.00
8575;BME280;4325;42.520;27.448;2023-03-21T07:15:52;101104.28;;;13.31;100.00
8575;BME280;4325;42.520;27.448;2023-03-21T07:18:21;101112.53;;;13.31;100.00
8575;BME280;4325;42.520;27.448;2023-03-21T07:20:48;101117.75;;;13.27;100.00
8575;BME280;4325;42.520;27.448;2023-03-21T07:23:17;101120.84;;;13.10;100.00
8575;BME280;4325;42.520;27.448;2023-03-21T07:25:45;101123.31;;;13.02;100.00
8575;BME280;4325;42.520;27.448;2023-03-21T07:28:12;101113.69;;;12.99;100.00
8575;BME280;4325;42.520;27.448;2023-03-21T07:30:39;101109.00;;;13.00;100.00
8575;BME280;4325;42.520;27.448;2023-03-21T07:33:06;101099.66;;;13.01;100.00
8575;BME280;4325;42.520;27.448;2023-03-21T07:35:35;101110.38;;;13.07;100.00
8575;BME280;4325;42.520;27.448;2023-03-21T07:38:02;101113.66;;;13.19;100.00
8575;BME280;4325;42.520;27.448;2023-03-21T07:40:29;101109.81;;;13.20;100.00
8575;BME280;4325;42.520;27.448;2023-03-21T07:42:56;101096.88;;;13.26;100.00
8575;BME280;4325;42.520;27.448;2023-03-21T07:45:23;101108.69;;;13.27;100.00
8575;BME280;4325;42.520;27.448;2023-03-21T07:47:52;101101.44;;;13.51;100.00
8575;BME280;4325;42.520;27.448;2023-03-21T07:50:19;101109.50;;;13.86;100.00
8575;BME280;4325;42.520;27.448;2023-03-21T07:52:47;101118.09;;;14.23;100.00
8575;BME280;4325;42.520;27.448;2023-03-21T07:55:15;101125.59;;;14.51;100.00
8575;BME280;4325;42.520;27.448;2023-03-21T07:57:43;101126.81;;;14.69;100.00
8575;BME280;4325;42.520;27.448;2023-03-21T08:00:12;101126.47;;;14.76;100.00
8575;BME280;4325;42.520;27.448;2023-03-21T08:02:47;101118.44;;;14.50;100.00
8575;BME280;4325;42.520;27.448;2023-03-21T08:05:14;101112.81;;;14.32;100.00
8575;BME280;4325;42.520;27.448;2023-03-21T08:07:43;101113.50;;;14.47;100.00
8575;BME280;4325;42.520;27.448;2023-03-21T08:10:12;101113.69;;;14.85;100.00
8575;BME280;4325;42.520;27.448;2023-03-21T08:12:42;101113.22;;;14.78;100.00
8575;BME280;4325;42.520;27.448;2023-03-21T08:15:10;101106.84;;;14.53;100.00
8575;BME280;4325;42.520;27.448;2023-03-21T08:17:38;101113.59;;;14.37;100.00
8575;BME280;4325;42.520;27.448;2023-03-21T08:20:07;101110.41;;;14.15;100.00
8575;BME280;4325;42.520;27.448;2023-03-21T08:22:35;101115.66;;;14.12;100.00
8575;BME280;4325;42.520;27.448;2023-03-21T08:25:03;101116.13;;;14.24;100.00
8575;BME280;4325;42.520;27.448;2023-03-21T08:27:31;101110.28;;;14.40;100.00
8575;BME280;4325;42.520;27.448;2023-03-21T08:29:59;101111.00;;;14.80;100.00
8575;BME280;4325;42.520;27.448;2023-03-21T08:32:26;101104.81;;;15.16;100.00
8575;BME280;4325;42.520;27.448;2023-03-21T08:34:55;101110.41;;;15.35;100.00
8575;BME280;4325;42.520;27.448;2023-03-21T08:37:23;101108.13;;;15.66;98.72
8575;BME280;4325;42.520;27.448;2023-03-21T08:39:51;101116.63;;;15.69;96.18
8575;BME280;4325;42.520;27.448;2023-03-21T08:42:19;101119.22;;;15.79;96.22
8575;BME280;4325;42.520;27.448;2023-03-21T08:44:47;101123.59;;;15.85;95.63
8575;BME280;4325;42.520;27.448;2023-03-21T08:47:15;101121.66;;;15.62;94.49
8575;BME280;4325;42.520;27.448;2023-03-21T08:49:42;101113.59;;;15.47;95.27
8575;BME280;4325;42.520;27.448;2023-03-21T08:52:10;101102.06;;;15.45;96.77
8575;BME280;4325;42.520;27.448;2023-03-21T08:54:37;101107.75;;;15.72;96.30
8575;BME280;4325;42.520;27.448;2023-03-21T08:57:05;101096.88;;;16.18;94.63
8575;BME280;4325;42.520;27.448;2023-03-21T08:59:33;101096.38;;;16.94;91.18
8575;BME280;4325;42.520;27.448;2023-03-21T09:02:01;101094.16;;;17.51;86.13
8575;BME280;4325;42.520;27.448;2023-03-21T09:04:28;101092.09;;;17.84;81.68
8575;BME280;4325;42.520;27.448;2023-03-21T09:06:56;101106.63;;;18.03;79.20
8575;BME280;4325;42.520;27.448;2023-03-21T09:09:25;101104.81;;;18.42;77.70
8575;BME280;4325;42.520;27.448;2023-03-21T09:11:52;101113.16;;;18.65;76.87
8575;BME280;4325;42.520;27.448;2023-03-21T09:14:19;101118.94;;;18.55;73.06
8575;BME280;4325;42.520;27.448;2023-03-21T09:16:46;101116.16;;;18.32;73.48
8575;BME280;4325;42.520;27.448;2023-03-21T09:19:14;101119.31;;;18.04;73.98
8575;BME280;4325;42.520;27.448;2023-03-21T09:21:42;101113.44;;;17.42;74.85
8575;BME280;4325;42.520;27.448;2023-03-21T09:24:10;101120.09;;;16.68;80.37
8575;BME280;4325;42.520;27.448;2023-03-21T09:26:37;101111.84;;;16.49;85.56
8575;BME280;4325;42.520;27.448;2023-03-21T09:29:04;101104.81;;;16.38;86.43
8575;BME280;4325;42.520;27.448;2023-03-21T09:31:32;101110.44;;;16.52;86.90
8575;BME280;4325;42.520;27.448;2023-03-21T09:33:59;101116.56;;;16.81;85.66
8575;BME280;4325;42.520;27.448;2023-03-21T09:36:27;101108.28;;;16.95;83.81
8575;BME280;4325;42.520;27.448;2023-03-21T09:38:59;101112.72;;;17.09;82.87
8575;BME280;4325;42.520;27.448;2023-03-21T09:44:41;101107.91;;;17.29;77.29
8575;BME280;4325;42.520;27.448;2023-03-21T09:47:16;101114.03;;;17.26;77.27
8575;BME280;4325;42.520;27.448;2023-03-21T09:49:48;101112.38;;;16.97;78.44
8575;BME280;4325;42.520;27.448;2023-03-21T09:52:21;101109.84;;;17.01;79.46
8575;BME280;4325;42.520;27.448;2023-03-21T09:54:50;101112.22;;;17.48;77.36
8575;BME280;4325;42.520;27.448;2023-03-21T09:57:26;101106.06;;;17.78;73.47
8575;BME280;4325;42.520;27.448;2023-03-21T09:59:57;101099.91;;;18.17;72.08
8575;BME280;4325;42.520;27.448;2023-03-21T10:02:36;101096.38;;;18.70;71.13
8575;BME280;4325;42.520;27.448;2023-03-21T10:05:12;101095.16;;;18.84;66.04
8575;BME280;4325;42.520;27.448;2023-03-21T10:07:50;101101.88;;;18.61;67.13
8575;BME280;4325;42.520;27.448;2023-03-21T10:10:21;101105.22;;;18.50;68.29
8575;BME280;4325;42.520;27.448;2023-03-21T10:12:51;101092.59;;;18.21;67.13
8575;BME280;4325;42.520;27.448;2023-03-21T10:15:21;101094.66;;;17.80;68.37
8575;BME280;4325;42.520;27.448;2023-03-21T10:17:53;101085.44;;;17.44;71.42
8575;BME280;4325;42.520;27.448;2023-03-21T10:20:23;101086.38;;;17.66;74.01
8575;BME280;4325;42.520;27.448;2023-03-21T10:22:53;101082.91;;;18.32;70.29
8575;BME280;4325;42.520;27.448;2023-03-21T10:25:24;101079.22;;;19.29;64.60
8575;BME280;4325;42.520;27.448;2023-03-21T10:27:52;101076.06;;;20.64;55.95
8575;BME280;4325;42.520;27.448;2023-03-21T10:30:25;101078.16;;;22.30;51.86
8575;BME280;4325;42.520;27.448;2023-03-21T10:32:55;101075.00;;;22.53;47.95
8575;BME280;4325;42.520;27.448;2023-03-21T10:35:23;101059.59;;;22.47;45.98
8575;BME280;4325;42.520;27.448;2023-03-21T10:37:51;101066.31;;;23.11;45.49
8575;BME280;4325;42.520;27.448;2023-03-21T10:40:18;101063.53;;;23.11;44.17
8575;BME280;4325;42.520;27.448;2023-03-21T10:42:45;101064.75;;;22.77;45.15
8575;BME280;4325;42.520;27.448;2023-03-21T10:45:17;101058.31;;;23.22;44.54
8575;BME280;4325;42.520;27.448;2023-03-21T10:47:47;101060.97;;;23.67;43.08
8575;BME280;4325;42.520;27.448;2023-03-21T10:50:16;101065.06;;;24.21;42.95
8575;BME280;4325;42.520;27.448;2023-03-21T10:52:47;101050.88;;;24.85;40.14
8575;BME280;4325;42.520;27.448;2023-03-21T10:55:20;101058.13;;;25.02;40.37
8575;BME280;4325;42.520;27.448;2023-03-21T10:57:52;101049.63;;;25.14;39.59
8575;BME280;4325;42.520;27.448;2023-03-21T11:00:24;101051.03;;;24.76;39.03
8575;BME280;4325;42.520;27.448;2023-03-21T11:02:53;101041.91;;;24.36;40.26
8575;BME280;4325;42.520;27.448;2023-03-21T11:05:24;101046.78;;;24.39;40.57
8575;BME280;4325;42.520;27.448;2023-03-21T11:08:03;101043.59;;;24.68;39.78
8575;BME280;4325;42.520;27.448;2023-03-21T11:10:33;101038.19;;;24.75;39.87
8575;BME280;4325;42.520;27.448;2023-03-21T11:13:05;101041.38;;;25.36;39.16
8575;BME280;4325;42.520;27.448;2023-03-21T11:15:40;101035.25;;;25.81;38.19
8575;BME280;4325;42.520;27.448;2023-03-21T11:18:15;101031.31;;;26.20;36.65
8575;BME280;4325;42.520;27.448;2023-03-21T11:20:48;101033.56;;;26.95;36.08
8575;BME280;4325;42.520;27.448;2023-03-21T11:23:16;101036.47;;;27.47;34.43
8575;BME280;4325;42.520;27.448;2023-03-21T11:25:46;101033.53;;;27.40;34.83
8575;BME280;4325;42.520;27.448;2023-03-21T11:28:17;101029.84;;;27.14;34.89
8575;BME280;4325;42.520;27.448;2023-03-21T11:30:50;101026.19;;;26.68;35.28
8575;BME280;4325;42.520;27.448;2023-03-21T11:33:19;101025.06;;;26.50;35.58
8575;BME280;4325;42.520;27.448;2023-03-21T11:35:57;101021.41;;;26.27;36.31
8575;BME280;4325;42.520;27.448;2023-03-21T11:38:29;101035.41;;;25.88;36.66
8575;BME280;4325;42.520;27.448;2023-03-21T11:40:59;101026.03;;;24.99;37.56
8575;BME280;4325;42.520;27.448;2023-03-21T11:43:29;101023.50;;;24.35;39.22
8575;BME280;4325;42.520;27.448;2023-03-21T11:45:59;101018.00;;;24.11;39.66
8575;BME280;4325;42.520;27.448;2023-03-21T11:48:26;101014.38;;;23.22;40.52
8575;BME280;4325;42.520;27.448;2023-03-21T11:50:58;101010.44;;;22.87;42.10
8575;BME280;4325;42.520;27.448;2023-03-21T11:53:36;101007.50;;;22.71;42.47
8575;BME280;4325;42.520;27.448;2023-03-21T11:56:17;101001.84;;;22.59;43.09
8575;BME280;4325;42.520;27.448;2023-03-21T11:58:56;101002.91;;;21.89;44.15
8575;BME280;4325;42.520;27.448;2023-03-21T12:01:32;100998.31;;;21.43;45.50
8575;BME280;4325;42.520;27.448;2023-03-21T12:04:31;100998.16;;;21.81;45.79
8575;BME280;4325;42.520;27.448;2023-03-21T12:07:13;101001.44;;;21.04;46.75
8575;BME280;4325;42.520;27.448;2023-03-21T12:09:48;101002.59;;;21.03;47.89
8575;BME280;4325;42.520;27.448;2023-03-21T12:12:33;100992.25;;;20.74;47.97
8575;BME280;4325;42.520;27.448;2023-03-21T12:15:09;100986.50;;;19.99;50.36
8575;BME280;4325;42.520;27.448;2023-03-21T12:17:44;100994.25;;;19.20;53.39
8575;BME280;4325;42.520;27.448;2023-03-21T12:20:31;100985.19;;;18.49;57.01
8575;BME280;4325;42.520;27.448;2023-03-21T12:23:33;100977.50;;;17.79;62.24
8575;BME280;4325;42.520;27.448;2023-03-21T12:26:10;100973.06;;;17.43;66.90
8575;BME280;4325;42.520;27.448;2023-03-21T12:28:50;100978.50;;;16.98;69.86
8575;BME280;4325;42.520;27.448;2023-03-21T12:31:25;100982.78;;;16.77;72.90
8575;BME280;4325;42.520;27.448;2023-03-21T12:34:03;100968.47;;;16.43;75.89
8575;BME280;4325;42.520;27.448;2023-03-21T12:36:51;100970.25;;;15.74;80.75
8575;BME280;4325;42.520;27.448;2023-03-21T12:39:26;100974.47;;;15.30;85.77
8575;BME280;4325;42.520;27.448;2023-03-21T12:42:07;100966.63;;;15.18;88.42
8575;BME280;4325;42.520;27.448;2023-03-21T12:44:38;100952.66;;;14.91;90.86
8575;BME280;4325;42.520;27.448;2023-03-21T12:47:11;100954.25;;;14.73;92.16
8575;BME280;4325;42.520;27.448;2023-03-21T12:49:44;100959.34;;;14.61;94.60
8575;BME280;4325;42.520;27.448;2023-03-21T12:52:16;100959.22;;;14.47;95.83
8575;BME280;4325;42.520;27.448;2023-03-21T12:54:48;100949.31;;;14.18;97.68
8575;BME280;4325;42.520;27.448;2023-03-21T12:57:19;100945.28;;;14.05;99.77
8575;BME280;4325;42.520;27.448;2023-03-21T12:59:53;100943.72;;;13.99;100.00
8575;BME280;4325;42.520;27.448;2023-03-21T13:02:27;100929.69;;;13.96;100.00
8575;BME280;4325;42.520;27.448;2023-03-21T13:05:03;100942.44;;;13.86;100.00
8575;BME280;4325;42.520;27.448;2023-03-21T13:07:36;100941.13;;;13.79;100.00
8575;BME280;4325;42.520;27.448;2023-03-21T13:10:11;100933.47;;;13.71;100.00
8575;BME280;4325;42.520;27.448;2023-03-21T13:12:47;100927.56;;;13.54;100.00
8575;BME280;4325;42.520;27.448;2023-03-21T13:15:29;100913.91;;;13.39;100.00
8575;BME280;4325;42.520;27.448;2023-03-21T13:18:04;100906.53;;;13.34;100.00